KAUM/AUM METAR and TAF weather

Enter ICAO airport designator
Station Type Date Time Source
KAUM METAR 2020/02/24 23:35 UTC NOAA

KAUM 242335Z AUTO 01004KT 10SM CLR 02/M02 A2993 RMK AO2


Station Type Date Time Source
KAUM Decoded METAR 2020/02/24 23:35 UTC NOAA

Austin Municipal, MN, United States (KAUM) 43-40N 092-56W
Feb 24, 2020 - 06:35 PM EST / 2020.02.24 2335 UTC
Wind: from the N (010 degrees) at 5 MPH (4 KT):0
Visibility: 10 mile(s):0
Sky conditions: clear
Temperature: 35 F (2 C)
Windchill: 30 F (-1 C):1
Dew Point: 28 F (-2 C)
Relative Humidity: 74%
Pressure (altimeter): 29.93 in. Hg (1013 hPa)
ob: KAUM 242335Z AUTO 01004KT 10SM CLR 02/M02 A2993 RMK AO2
cycle: 23

Station Type Date Time Source
KAUM TAF UTC NOAA

Error!

Example: see airport list